sensor_id;sensor_type;location;lat;lon;timestamp;pressure;altitude;pressure_sealevel;temperature;humidity
65553;BME280;52465;51.560;14.368;2023-05-22T00:00:32;100380.44;;;20.38;56.42
65553;BME280;52465;51.560;14.368;2023-05-22T00:02:59;100378.34;;;20.40;56.49
65553;BME280;52465;51.560;14.368;2023-05-22T00:05:27;100369.19;;;20.35;56.59
65553;BME280;52465;51.560;14.368;2023-05-22T00:07:53;100379.81;;;20.35;56.46
65553;BME280;52465;51.560;14.368;2023-05-22T00:10:18;100382.84;;;20.46;56.57
65553;BME280;52465;51.560;14.368;2023-05-22T00:12:43;100388.16;;;20.46;56.53
65553;BME280;52465;51.560;14.368;2023-05-22T00:15:09;100384.66;;;20.45;56.76
65553;BME280;52465;51.560;14.368;2023-05-22T00:17:35;100378.75;;;20.43;56.50
65553;BME280;52465;51.560;14.368;2023-05-22T00:20:02;100369.19;;;20.35;56.49
65553;BME280;52465;51.560;14.368;2023-05-22T00:22:35;100375.09;;;20.38;56.52
65553;BME280;52465;51.560;14.368;2023-05-22T00:25:05;100368.19;;;20.30;56.59
65553;BME280;52465;51.560;14.368;2023-05-22T00:27:31;100365.06;;;20.40;56.57
65553;BME280;52465;51.560;14.368;2023-05-22T00:29:57;100366.31;;;20.37;56.62
65553;BME280;52465;51.560;14.368;2023-05-22T00:32:25;100365.94;;;20.33;56.67
65553;BME280;52465;51.560;14.368;2023-05-22T00:34:51;100364.09;;;20.34;56.63
65553;BME280;52465;51.560;14.368;2023-05-22T00:37:35;100365.78;;;20.28;57.04
65553;BME280;52465;51.560;14.368;2023-05-22T00:40:00;100357.38;;;20.31;56.67
65553;BME280;52465;51.560;14.368;2023-05-22T00:42:26;100375.53;;;20.34;56.68
65553;BME280;52465;51.560;14.368;2023-05-22T00:44:51;100366.63;;;20.22;56.81
65553;BME280;52465;51.560;14.368;2023-05-22T00:47:17;100364.56;;;20.24;56.85
65553;BME280;52465;51.560;14.368;2023-05-22T00:49:42;100379.22;;;20.33;56.75
65553;BME280;52465;51.560;14.368;2023-05-22T00:52:08;100381.31;;;20.31;56.74
65553;BME280;52465;51.560;14.368;2023-05-22T00:54:34;100369.63;;;20.32;56.78
65553;BME280;52465;51.560;14.368;2023-05-22T00:57:00;100377.59;;;20.32;56.85
65553;BME280;52465;51.560;14.368;2023-05-22T00:59:27;100377.00;;;20.30;57.09
65553;BME280;52465;51.560;14.368;2023-05-22T01:01:54;100372.19;;;20.21;56.75
65553;BME280;52465;51.560;14.368;2023-05-22T01:04:19;100381.50;;;20.30;56.97
65553;BME280;52465;51.560;14.368;2023-05-22T01:06:45;100379.88;;;20.29;56.93
65553;BME280;52465;51.560;14.368;2023-05-22T01:09:13;100386.22;;;20.28;57.01
65553;BME280;52465;51.560;14.368;2023-05-22T01:14:22;100381.34;;;20.25;57.11
65553;BME280;52465;51.560;14.368;2023-05-22T01:20:17;100389.53;;;20.23;57.09
65553;BME280;52465;51.560;14.368;2023-05-22T01:31:30;100373.25;;;20.13;57.18
65553;BME280;52465;51.560;14.368;2023-05-22T01:33:59;100383.88;;;20.13;57.31
65553;BME280;52465;51.560;14.368;2023-05-22T01:36:28;100377.53;;;20.14;57.33
65553;BME280;52465;51.560;14.368;2023-05-22T01:38:55;100384.03;;;20.18;57.37
65553;BME280;52465;51.560;14.368;2023-05-22T01:41:23;100379.00;;;20.10;57.39
65553;BME280;52465;51.560;14.368;2023-05-22T01:43:48;100389.59;;;20.17;57.53
65553;BME280;52465;51.560;14.368;2023-05-22T01:46:13;100384.50;;;20.15;57.26
65553;BME280;52465;51.560;14.368;2023-05-22T01:48:39;100385.31;;;20.16;57.51
65553;BME280;52465;51.560;14.368;2023-05-22T01:57:26;100366.38;;;20.05;57.44
65553;BME280;52465;51.560;14.368;2023-05-22T02:00:06;100368.00;;;20.06;57.58
65553;BME280;52465;51.560;14.368;2023-05-22T02:02:37;100376.94;;;20.12;57.63
65553;BME280;52465;51.560;14.368;2023-05-22T02:05:04;100377.16;;;20.11;57.50
65553;BME280;52465;51.560;14.368;2023-05-22T02:07:36;100369.25;;;20.04;57.84
65553;BME280;52465;51.560;14.368;2023-05-22T02:10:06;100378.38;;;20.08;57.75
65553;BME280;52465;51.560;14.368;2023-05-22T02:12:33;100378.38;;;20.08;57.81
65553;BME280;52465;51.560;14.368;2023-05-22T02:15:17;100366.78;;;20.02;57.54
65553;BME280;52465;51.560;14.368;2023-05-22T02:17:42;100373.31;;;20.06;57.72
65553;BME280;52465;51.560;14.368;2023-05-22T02:20:12;100369.84;;;20.06;57.71
65553;BME280;52465;51.560;14.368;2023-05-22T02:22:42;100377.00;;;20.05;57.75
65553;BME280;52465;51.560;14.368;2023-05-22T02:25:11;100366.78;;;20.02;57.72
65553;BME280;52465;51.560;14.368;2023-05-22T02:27:40;100359.25;;;19.99;57.76
65553;BME280;52465;51.560;14.368;2023-05-22T02:30:06;100362.34;;;19.96;58.01
65553;BME280;52465;51.560;14.368;2023-05-22T02:32:31;100348.28;;;19.89;57.83
65553;BME280;52465;51.560;14.368;2023-05-22T02:34:57;100362.72;;;20.00;57.81
65553;BME280;52465;51.560;14.368;2023-05-22T02:37:23;100358.44;;;19.99;57.82
65553;BME280;52465;51.560;14.368;2023-05-22T02:39:48;100362.72;;;20.00;57.88
65553;BME280;52465;51.560;14.368;2023-05-22T02:42:13;100361.97;;;19.93;58.00
65553;BME280;52465;51.560;14.368;2023-05-22T02:44:39;100349.31;;;19.88;57.77
65553;BME280;52465;51.560;14.368;2023-05-22T02:47:04;100345.22;;;19.86;57.87
65553;BME280;52465;51.560;14.368;2023-05-22T02:49:48;100358.88;;;19.96;57.88
65553;BME280;52465;51.560;14.368;2023-05-22T02:52:14;100359.69;;;19.96;57.90
65553;BME280;52465;51.560;14.368;2023-05-22T02:54:39;100357.25;;;19.95;57.94
65553;BME280;52465;51.560;14.368;2023-05-22T02:57:06;100361.97;;;19.93;57.93
65553;BME280;52465;51.560;14.368;2023-05-22T02:59:31;100361.97;;;19.93;57.97
65553;BME280;52465;51.560;14.368;2023-05-22T03:01:57;100328.97;;;19.75;57.95
65553;BME280;52465;51.560;14.368;2023-05-22T03:04:23;100351.53;;;19.91;57.98
65553;BME280;52465;51.560;14.368;2023-05-22T03:06:48;100343.63;;;19.85;58.02
65553;BME280;52465;51.560;14.368;2023-05-22T03:09:14;100353.00;;;19.87;57.89
65553;BME280;52465;51.560;14.368;2023-05-22T03:11:40;100362.38;;;19.90;58.06
65553;BME280;52465;51.560;14.368;2023-05-22T03:14:05;100354.63;;;19.88;58.20
65553;BME280;52465;51.560;14.368;2023-05-22T03:16:31;100349.31;;;19.88;58.13
65553;BME280;52465;51.560;14.368;2023-05-22T03:19:13;100360.19;;;19.87;58.11
65553;BME280;52465;51.560;14.368;2023-05-22T03:21:39;100362.84;;;19.87;58.22
65553;BME280;52465;51.560;14.368;2023-05-22T03:24:06;100346.28;;;19.85;57.98
65553;BME280;52465;51.560;14.368;2023-05-22T03:26:32;100353.44;;;19.84;58.07
65553;BME280;52465;51.560;14.368;2023-05-22T03:28:57;100311.06;;;19.58;58.14
65553;BME280;52465;51.560;14.368;2023-05-22T03:31:27;100344.66;;;19.84;58.09
65553;BME280;52465;51.560;14.368;2023-05-22T03:33:52;100347.72;;;19.80;58.10
65553;BME280;52465;51.560;14.368;2023-05-22T03:36:19;100348.34;;;19.83;58.18
65553;BME280;52465;51.560;14.368;2023-05-22T03:38:45;100336.50;;;19.78;58.16
65553;BME280;52465;51.560;14.368;2023-05-22T03:41:11;100354.69;;;19.81;58.21
65553;BME280;52465;51.560;14.368;2023-05-22T03:43:36;100334.31;;;19.69;58.05
65553;BME280;52465;51.560;14.368;2023-05-22T03:46:01;100342.47;;;19.74;58.14
65553;BME280;52465;51.560;14.368;2023-05-22T03:48:27;100356.72;;;19.79;58.25
65553;BME280;52465;51.560;14.368;2023-05-22T03:50:52;100358.56;;;19.79;58.26
65553;BME280;52465;51.560;14.368;2023-05-22T03:53:18;100354.28;;;19.78;58.14
65553;BME280;52465;51.560;14.368;2023-05-22T03:55:43;100342.09;;;19.70;58.20
65553;BME280;52465;51.560;14.368;2023-05-22T03:58:08;100348.56;;;19.74;58.12
65553;BME280;52465;51.560;14.368;2023-05-22T04:00:34;100335.91;;;19.76;58.18
65553;BME280;52465;51.560;14.368;2023-05-22T04:02:59;100352.88;;;19.75;58.18
65553;BME280;52465;51.560;14.368;2023-05-22T04:05:25;100341.47;;;19.68;58.24
65553;BME280;52465;51.560;14.368;2023-05-22T04:07:50;100343.72;;;19.71;58.32
65553;BME280;52465;51.560;14.368;2023-05-22T04:10:16;100351.47;;;19.73;58.29
65553;BME280;52465;51.560;14.368;2023-05-22T04:12:41;100348.00;;;19.72;58.18
65553;BME280;52465;51.560;14.368;2023-05-22T04:15:08;100337.63;;;19.64;58.35
65553;BME280;52465;51.560;14.368;2023-05-22T04:17:38;100329.03;;;19.62;57.96
65553;BME280;52465;51.560;14.368;2023-05-22T04:20:04;100341.88;;;19.72;58.34
65553;BME280;52465;51.560;14.368;2023-05-22T04:22:30;100345.34;;;19.72;58.18
65553;BME280;52465;51.560;14.368;2023-05-22T04:25:14;100342.09;;;19.70;58.46
65553;BME280;52465;51.560;14.368;2023-05-22T04:27:40;100345.75;;;19.69;58.38
65553;BME280;52465;51.560;14.368;2023-05-22T04:30:06;100346.59;;;19.70;58.41
65553;BME280;52465;51.560;14.368;2023-05-22T04:32:33;100346.59;;;19.70;58.34
65553;BME280;52465;51.560;14.368;2023-05-22T04:35:00;100357.22;;;19.70;58.38
65553;BME280;52465;51.560;14.368;2023-05-22T04:37:26;100337.25;;;19.61;58.33
65553;BME280;52465;51.560;14.368;2023-05-22T04:39:52;100354.38;;;19.65;58.19
65553;BME280;52465;51.560;14.368;2023-05-22T04:42:22;100364.78;;;19.66;58.46
65553;BME280;52465;51.560;14.368;2023-05-22T04:44:49;100361.91;;;19.68;58.42
65553;BME280;52465;51.560;14.368;2023-05-22T04:47:17;100354.38;;;19.65;58.45
65553;BME280;52465;51.560;14.368;2023-05-22T04:49:43;100354.38;;;19.65;58.43
65553;BME280;52465;51.560;14.368;2023-05-22T04:52:10;100364.78;;;19.66;58.34
65553;BME280;52465;51.560;14.368;2023-05-22T04:54:37;100354.38;;;19.65;58.53
65553;BME280;52465;51.560;14.368;2023-05-22T04:57:03;100356.63;;;19.61;58.56
65553;BME280;52465;51.560;14.368;2023-05-22T04:59:30;100357.84;;;19.65;58.37
65553;BME280;52465;51.560;14.368;2023-05-22T05:01:55;100354.56;;;19.63;58.68
65553;BME280;52465;51.560;14.368;2023-05-22T05:04:21;100356.41;;;19.63;58.35
65553;BME280;52465;51.560;14.368;2023-05-22T05:06:46;100351.94;;;19.56;58.47
65553;BME280;52465;51.560;14.368;2023-05-22T05:09:12;100358.88;;;19.64;58.48
65553;BME280;52465;51.560;14.368;2023-05-22T05:11:37;100355.38;;;19.64;58.53
65553;BME280;52465;51.560;14.368;2023-05-22T05:14:02;100353.56;;;19.64;58.57
65553;BME280;52465;51.560;14.368;2023-05-22T05:16:27;100343.75;;;19.58;58.45
65553;BME280;52465;51.560;14.368;2023-05-22T05:18:53;100345.44;;;19.59;58.39
65553;BME280;52465;51.560;14.368;2023-05-22T05:21:19;100360.91;;;19.62;58.49
65553;BME280;52465;51.560;14.368;2023-05-22T05:23:46;100343.75;;;19.58;58.32
65553;BME280;52465;51.560;14.368;2023-05-22T05:26:11;100348.09;;;19.59;58.47
65553;BME280;52465;51.560;14.368;2023-05-22T05:28:37;100346.63;;;19.56;58.52
65553;BME280;52465;51.560;14.368;2023-05-22T05:31:02;100340.50;;;19.56;58.62
65553;BME280;52465;51.560;14.368;2023-05-22T05:33:27;100352.94;;;19.62;58.46
65553;BME280;52465;51.560;14.368;2023-05-22T05:35:53;100348.44;;;19.63;58.55
65553;BME280;52465;51.560;14.368;2023-05-22T05:38:18;100335.63;;;19.53;58.51
65553;BME280;52465;51.560;14.368;2023-05-22T05:40:44;100344.41;;;19.60;58.45
65553;BME280;52465;51.560;14.368;2023-05-22T05:43:10;100342.78;;;19.59;58.45
65553;BME280;52465;51.560;14.368;2023-05-22T05:45:38;100339.31;;;19.59;58.54
65553;BME280;52465;51.560;14.368;2023-05-22T05:48:03;100346.00;;;19.61;58.51
65553;BME280;52465;51.560;14.368;2023-05-22T05:50:28;100345.44;;;19.59;58.65
65553;BME280;52465;51.560;14.368;2023-05-22T05:52:54;100340.72;;;19.61;58.55
65553;BME280;52465;51.560;14.368;2023-05-22T05:55:19;100341.75;;;19.53;58.65
65553;BME280;52465;51.560;14.368;2023-05-22T05:57:45;100338.28;;;19.60;58.50
65553;BME280;52465;51.560;14.368;2023-05-22T06:00:10;100344.78;;;19.57;58.55
65553;BME280;52465;51.560;14.368;2023-05-22T06:02:36;100330.72;;;19.50;58.57
65553;BME280;52465;51.560;14.368;2023-05-22T06:05:02;100332.75;;;19.54;58.62
65553;BME280;52465;51.560;14.368;2023-05-22T06:07:30;100329.91;;;19.49;58.28
65553;BME280;52465;51.560;14.368;2023-05-22T06:09:56;100319.94;;;19.45;58.62
65553;BME280;52465;51.560;14.368;2023-05-22T06:12:22;100340.50;;;19.56;58.48
65553;BME280;52465;51.560;14.368;2023-05-22T06:14:48;100347.06;;;19.60;58.48
65553;BME280;52465;51.560;14.368;2023-05-22T06:17:13;100340.94;;;19.60;58.57
65553;BME280;52465;51.560;14.368;2023-05-22T06:19:39;100338.44;;;19.58;58.71
65553;BME280;52465;51.560;14.368;2023-05-22T06:22:05;100335.00;;;19.51;58.67
65553;BME280;52465;51.560;14.368;2023-05-22T06:24:30;100331.31;;;19.52;58.52
65553;BME280;52465;51.560;14.368;2023-05-22T06:26:56;100336.66;;;19.59;58.67
65553;BME280;52465;51.560;14.368;2023-05-22T06:29:22;100343.16;;;19.56;58.66
65553;BME280;52465;51.560;14.368;2023-05-22T06:31:47;100336.22;;;19.55;58.65
65553;BME280;52465;51.560;14.368;2023-05-22T06:34:13;100339.31;;;19.59;58.59
65553;BME280;52465;51.560;14.368;2023-05-22T06:36:38;100314.41;;;19.46;58.57
65553;BME280;52465;51.560;14.368;2023-05-22T06:39:03;100345.44;;;19.59;58.63
65553;BME280;52465;51.560;14.368;2023-05-22T06:41:28;100338.84;;;19.62;58.59
65553;BME280;52465;51.560;14.368;2023-05-22T06:43:56;100314.22;;;19.48;58.51
65553;BME280;52465;51.560;14.368;2023-05-22T06:46:21;100322.94;;;19.55;58.64
65553;BME280;52465;51.560;14.368;2023-05-22T06:48:47;100331.47;;;19.64;58.68
65553;BME280;52465;51.560;14.368;2023-05-22T06:51:13;100333.31;;;19.63;58.72
65553;BME280;52465;51.560;14.368;2023-05-22T06:53:39;100319.25;;;19.56;58.63
65553;BME280;52465;51.560;14.368;2023-05-22T06:56:04;100329.22;;;19.67;58.57
65553;BME280;52465;51.560;14.368;2023-05-22T06:58:30;100317.38;;;19.63;58.57
65553;BME280;52465;51.560;14.368;2023-05-22T07:00:55;100327.19;;;19.63;58.33
65553;BME280;52465;51.560;14.368;2023-05-22T07:03:21;100322.06;;;19.68;58.29
65553;BME280;52465;51.560;14.368;2023-05-22T07:05:46;100325.75;;;19.67;58.40
65553;BME280;52465;51.560;14.368;2023-05-22T07:08:12;100323.69;;;19.69;58.63
65553;BME280;52465;51.560;14.368;2023-05-22T07:10:37;100321.03;;;19.69;58.29
65553;BME280;52465;51.560;14.368;2023-05-22T07:13:02;100324.34;;;19.64;58.27
65553;BME280;52465;51.560;14.368;2023-05-22T07:15:28;100320.84;;;19.70;58.17
65553;BME280;52465;51.560;14.368;2023-05-22T07:17:53;100319.00;;;19.71;58.15
65553;BME280;52465;51.560;14.368;2023-05-22T07:20:18;100306.56;;;19.65;58.21
65553;BME280;52465;51.560;14.368;2023-05-22T07:22:44;100319.81;;;19.71;58.05
65553;BME280;52465;51.560;14.368;2023-05-22T07:25:09;100316.69;;;19.74;57.86
65553;BME280;52465;51.560;14.368;2023-05-22T07:27:35;100297.78;;;19.64;57.90
65553;BME280;52465;51.560;14.368;2023-05-22T07:30:00;100314.72;;;19.70;58.13
65553;BME280;52465;51.560;14.368;2023-05-22T07:32:25;100305.09;;;19.69;57.54
65553;BME280;52465;51.560;14.368;2023-05-22T07:35:09;100318.94;;;19.77;57.74
65553;BME280;52465;51.560;14.368;2023-05-22T07:37:36;100320.56;;;19.78;57.85
65553;BME280;52465;51.560;14.368;2023-05-22T07:40:03;100303.66;;;19.73;57.78
65553;BME280;52465;51.560;14.368;2023-05-22T07:42:32;100266.19;;;19.49;57.63
65553;BME280;52465;51.560;14.368;2023-05-22T07:44:57;100301.22;;;19.71;57.67
65553;BME280;52465;51.560;14.368;2023-05-22T07:47:22;100319.34;;;19.81;57.77
65553;BME280;52465;51.560;14.368;2023-05-22T07:49:48;100325.25;;;19.83;57.63
65553;BME280;52465;51.560;14.368;2023-05-22T07:52:13;100313.00;;;19.82;57.34
65553;BME280;52465;51.560;14.368;2023-05-22T07:54:38;100321.31;;;19.86;57.48
65553;BME280;52465;51.560;14.368;2023-05-22T07:57:04;100322.00;;;19.81;57.45
65553;BME280;52465;51.560;14.368;2023-05-22T07:59:32;100318.88;;;19.84;57.50
65553;BME280;52465;51.560;14.368;2023-05-22T08:01:57;100318.25;;;19.89;57.33
65553;BME280;52465;51.560;14.368;2023-05-22T08:04:23;100317.22;;;19.90;57.36
65553;BME280;52465;51.560;14.368;2023-05-22T08:06:48;100303.94;;;19.90;57.18
65553;BME280;52465;51.560;14.368;2023-05-22T08:09:13;100316.19;;;19.91;57.29
65553;BME280;52465;51.560;14.368;2023-05-22T08:11:39;100292.31;;;19.84;57.19
65553;BME280;52465;51.560;14.368;2023-05-22T08:14:06;100305.13;;;19.94;57.18
65553;BME280;52465;51.560;14.368;2023-05-22T08:16:32;100312.47;;;19.98;56.95
65553;BME280;52465;51.560;14.368;2023-05-22T08:18:57;100279.50;;;19.81;57.03
65553;BME280;52465;51.560;14.368;2023-05-22T08:21:23;100317.31;;;20.01;57.00
65553;BME280;52465;51.560;14.368;2023-05-22T08:23:48;100312.00;;;20.01;56.89
65553;BME280;52465;51.560;14.368;2023-05-22T08:26:14;100305.22;;;20.05;56.90
65553;BME280;52465;51.560;14.368;2023-05-22T08:28:39;100317.50;;;20.06;57.00
65553;BME280;52465;51.560;14.368;2023-05-22T08:31:10;100316.44;;;20.07;56.82
65553;BME280;52465;51.560;14.368;2023-05-22T08:33:36;100294.22;;;20.02;56.86
65553;BME280;52465;51.560;14.368;2023-05-22T08:36:01;100308.66;;;20.13;56.87
65553;BME280;52465;51.560;14.368;2023-05-22T08:38:26;100304.13;;;20.13;56.63
65553;BME280;52465;51.560;14.368;2023-05-22T08:40:52;100312.72;;;20.15;56.74
65553;BME280;52465;51.560;14.368;2023-05-22T08:43:19;100305.56;;;20.16;56.69
65553;BME280;52465;51.560;14.368;2023-05-22T08:45:51;100306.22;;;20.11;56.67
65553;BME280;52465;51.560;14.368;2023-05-22T08:48:22;100307.19;;;20.17;56.61
65553;BME280;52465;51.560;14.368;2023-05-22T08:50:52;100309.38;;;20.20;56.60
65553;BME280;52465;51.560;14.368;2023-05-22T08:53:21;100299.16;;;20.23;56.48
65553;BME280;52465;51.560;14.368;2023-05-22T08:55:48;100297.06;;;20.25;56.44
65553;BME280;52465;51.560;14.368;2023-05-22T08:58:13;100296.06;;;20.26;56.50
65553;BME280;52465;51.560;14.368;2023-05-22T09:00:40;100295.03;;;20.27;56.42
65553;BME280;52465;51.560;14.368;2023-05-22T09:03:05;100297.22;;;20.30;56.35
65553;BME280;52465;51.560;14.368;2023-05-22T09:05:53;100287.63;;;20.29;56.32
65553;BME280;52465;51.560;14.368;2023-05-22T09:08:18;100280.91;;;20.27;56.32
65553;BME280;52465;51.560;14.368;2023-05-22T09:10:44;100263.84;;;20.16;56.29
65553;BME280;52465;51.560;14.368;2023-05-22T09:13:10;100290.69;;;20.33;56.20
65553;BME280;52465;51.560;14.368;2023-05-22T09:15:36;100273.00;;;20.20;56.19
65553;BME280;52465;51.560;14.368;2023-05-22T09:18:02;100287.22;;;20.32;55.96
65553;BME280;52465;51.560;14.368;2023-05-22T09:20:28;100275.16;;;20.30;56.17
65553;BME280;52465;51.560;14.368;2023-05-22T09:22:53;100280.84;;;20.33;56.30
65553;BME280;52465;51.560;14.368;2023-05-22T09:25:20;100283.06;;;20.37;56.17
65553;BME280;52465;51.560;14.368;2023-05-22T09:27:49;100282.09;;;20.31;56.15
65553;BME280;52465;51.560;14.368;2023-05-22T09:30:19;100266.97;;;20.31;56.04
65553;BME280;52465;51.560;14.368;2023-05-22T09:32:49;100284.84;;;20.43;56.00
65553;BME280;52465;51.560;14.368;2023-05-22T09:35:15;100287.09;;;20.46;56.13
65553;BME280;52465;51.560;14.368;2023-05-22T09:37:40;100278.28;;;20.45;56.01
65553;BME280;52465;51.560;14.368;2023-05-22T09:40:07;100285.84;;;20.48;55.97
65553;BME280;52465;51.560;14.368;2023-05-22T09:42:34;100276.44;;;20.46;55.92
65553;BME280;52465;51.560;14.368;2023-05-22T09:45:18;100292.56;;;20.51;55.88
65553;BME280;52465;51.560;14.368;2023-05-22T09:47:49;100269.91;;;20.42;56.00
65553;BME280;52465;51.560;14.368;2023-05-22T09:50:15;100257.50;;;20.35;55.79
65553;BME280;52465;51.560;14.368;2023-05-22T09:52:43;100274.53;;;20.53;55.79
65553;BME280;52465;51.560;14.368;2023-05-22T09:55:09;100283.31;;;20.53;55.74
65553;BME280;52465;51.560;14.368;2023-05-22T09:57:41;100240.97;;;20.33;55.50
65553;BME280;52465;51.560;14.368;2023-05-22T10:00:13;100275.94;;;20.55;55.77
65553;BME280;52465;51.560;14.368;2023-05-22T10:02:46;100265.88;;;20.57;55.76
65553;BME280;52465;51.560;14.368;2023-05-22T10:05:13;100264.03;;;20.58;55.56
65553;BME280;52465;51.560;14.368;2023-05-22T10:07:49;100266.94;;;20.56;55.80
65553;BME280;52465;51.560;14.368;2023-05-22T10:10:17;100251.06;;;20.50;55.65
65553;BME280;52465;51.560;14.368;2023-05-22T10:12:52;100253.41;;;20.58;55.53
65553;BME280;52465;51.560;14.368;2023-05-22T10:15:20;100247.66;;;20.61;55.56
65553;BME280;52465;51.560;14.368;2023-05-22T10:17:47;100256.59;;;20.67;55.56
65553;BME280;52465;51.560;14.368;2023-05-22T10:20:14;100250.22;;;20.68;55.32
65553;BME280;52465;51.560;14.368;2023-05-22T10:22:40;100234.13;;;20.63;55.46
65553;BME280;52465;51.560;14.368;2023-05-22T10:25:06;100238.19;;;20.65;55.16
65553;BME280;52465;51.560;14.368;2023-05-22T10:27:31;100251.75;;;20.75;55.18
65553;BME280;52465;51.560;14.368;2023-05-22T10:35:24;100227.09;;;20.68;55.34
65553;BME280;52465;51.560;14.368;2023-05-22T10:40:52;100221.59;;;20.81;55.28
65553;BME280;52465;51.560;14.368;2023-05-22T10:43:20;100230.63;;;20.80;55.20
65553;BME280;52465;51.560;14.368;2023-05-22T10:45:46;100225.75;;;20.77;55.26
65553;BME280;52465;51.560;14.368;2023-05-22T10:48:12;100213.56;;;20.70;55.01
65553;BME280;52465;51.560;14.368;2023-05-22T10:50:38;100200.13;;;20.65;55.20
65553;BME280;52465;51.560;14.368;2023-05-22T10:53:20;100207.13;;;20.77;55.17
65553;BME280;52465;51.560;14.368;2023-05-22T10:55:52;100216.06;;;20.83;55.06
65553;BME280;52465;51.560;14.368;2023-05-22T10:58:24;100212.38;;;20.84;55.11
65553;BME280;52465;51.560;14.368;2023-05-22T11:03:27;100215.84;;;20.84;55.17
65553;BME280;52465;51.560;14.368;2023-05-22T11:05:52;100218.06;;;20.88;55.21
65553;BME280;52465;51.560;14.368;2023-05-22T11:10:55;100211.91;;;20.87;54.87
65553;BME280;52465;51.560;14.368;2023-05-22T11:13:26;100212.03;;;20.92;55.18
65553;BME280;52465;51.560;14.368;2023-05-22T11:15:53;100195.72;;;20.89;55.09
65553;BME280;52465;51.560;14.368;2023-05-22T11:18:20;100200.59;;;20.92;55.08
65553;BME280;52465;51.560;14.368;2023-05-22T11:20:45;100214.41;;;21.00;55.16
65553;BME280;52465;51.560;14.368;2023-05-22T11:23:11;100205.00;;;20.98;55.11
65553;BME280;52465;51.560;14.368;2023-05-22T11:25:38;100193.09;;;21.00;54.96
65553;BME280;52465;51.560;14.368;2023-05-22T11:28:05;100200.75;;;21.08;54.74
65553;BME280;52465;51.560;14.368;2023-05-22T11:30:31;100164.25;;;20.85;54.63
65553;BME280;52465;51.560;14.368;2023-05-22T11:32:58;100207.84;;;21.14;54.71
65553;BME280;52465;51.560;14.368;2023-05-22T11:35:24;100201.25;;;21.17;54.74
65553;BME280;52465;51.560;14.368;2023-05-22T11:37:53;100200.78;;;21.20;54.49
65553;BME280;52465;51.560;14.368;2023-05-22T11:40:20;100201.03;;;21.19;54.51
65553;BME280;52465;51.560;14.368;2023-05-22T11:42:46;100171.16;;;21.17;54.62
65553;BME280;52465;51.560;14.368;2023-05-22T11:45:13;100186.22;;;21.23;54.47
65553;BME280;52465;51.560;14.368;2023-05-22T11:47:38;100194.78;;;21.25;54.66
65553;BME280;52465;51.560;14.368;2023-05-22T11:50:07;100176.03;;;21.20;54.66
65553;BME280;52465;51.560;14.368;2023-05-22T11:52:34;100181.03;;;21.28;54.49
65553;BME280;52465;51.560;14.368;2023-05-22T11:54:59;100188.81;;;21.29;54.47
65553;BME280;52465;51.560;14.368;2023-05-22T11:57:25;100180.09;;;21.22;54.46
65553;BME280;52465;51.560;14.368;2023-05-22T11:59:50;100188.22;;;21.27;54.43
65553;BME280;52465;51.560;14.368;2023-05-22T12:02:17;100188.41;;;21.26;54.41
65553;BME280;52465;51.560;14.368;2023-05-22T12:04:43;100184.50;;;21.28;54.26
65553;BME280;52465;51.560;14.368;2023-05-22T12:07:08;100177.56;;;21.27;54.40
65553;BME280;52465;51.560;14.368;2023-05-22T12:09:34;100167.00;;;21.21;54.54
65553;BME280;52465;51.560;14.368;2023-05-22T12:11:59;100172.84;;;21.29;54.36
65553;BME280;52465;51.560;14.368;2023-05-22T12:14:25;100165.66;;;21.30;54.52
65553;BME280;52465;51.560;14.368;2023-05-22T12:16:51;100156.63;;;21.31;54.61
65553;BME280;52465;51.560;14.368;2023-05-22T12:19:17;100160.53;;;21.28;54.38
65553;BME280;52465;51.560;14.368;2023-05-22T12:21:43;100159.06;;;21.32;54.33
65553;BME280;52465;51.560;14.368;2023-05-22T12:24:09;100167.16;;;21.37;54.33
65553;BME280;52465;51.560;14.368;2023-05-22T12:26:35;100148.88;;;21.29;54.42
65553;BME280;52465;51.560;14.368;2023-05-22T12:29:02;100144.72;;;21.33;54.53
65553;BME280;52465;51.560;14.368;2023-05-22T12:31:33;100152.94;;;21.44;54.06
65553;BME280;52465;51.560;14.368;2023-05-22T12:34:03;100157.00;;;21.46;54.22
65553;BME280;52465;51.560;14.368;2023-05-22T12:36:32;100152.72;;;21.45;54.19
65553;BME280;52465;51.560;14.368;2023-05-22T12:38:59;100150.06;;;21.45;53.93
65553;BME280;52465;51.560;14.368;2023-05-22T12:41:24;100160.47;;;21.47;54.08
65553;BME280;52465;51.560;14.368;2023-05-22T12:43:50;100113.41;;;21.17;54.08
65553;BME280;52465;51.560;14.368;2023-05-22T12:46:15;100151.91;;;21.45;54.21
65553;BME280;52465;51.560;14.368;2023-05-22T12:48:41;100141.59;;;21.36;54.08
65553;BME280;52465;51.560;14.368;2023-05-22T12:51:06;100158.84;;;21.46;54.08
65553;BME280;52465;51.560;14.368;2023-05-22T12:53:33;100110.03;;;21.10;54.15
65553;BME280;52465;51.560;14.368;2023-05-22T12:55:59;100150.25;;;21.44;54.13
65553;BME280;52465;51.560;14.368;2023-05-22T12:58:24;100143.31;;;21.43;54.09
65553;BME280;52465;51.560;14.368;2023-05-22T13:00:49;100138.91;;;21.36;53.98
65553;BME280;52465;51.560;14.368;2023-05-22T13:03:15;100151.44;;;21.48;54.09
65553;BME280;52465;51.560;14.368;2023-05-22T13:05:41;100140.78;;;21.48;53.81
65553;BME280;52465;51.560;14.368;2023-05-22T13:08:06;100117.94;;;21.28;54.08
65553;BME280;52465;51.560;14.368;2023-05-22T13:10:31;100146.47;;;21.51;54.13
65553;BME280;52465;51.560;14.368;2023-05-22T13:12:57;100138.72;;;21.50;53.87